createdAt,value
2019-04-03T00:09:55.378Z,7.00
2019-04-03T00:20:00.894Z,6.91
2019-04-03T00:30:09.510Z,6.92
2019-04-03T00:40:15.236Z,6.84
2019-04-03T00:50:20.494Z,6.63
2019-04-03T01:00:26.395Z,6.61
2019-04-03T01:10:32.412Z,6.56
2019-04-03T01:20:37.805Z,6.49
2019-04-03T01:30:44.230Z,6.34
2019-04-03T01:40:50.670Z,6.18
2019-04-03T01:50:59.358Z,6.23
2019-04-03T02:01:06.324Z,6.09
2019-04-03T02:11:11.920Z,6.00
2019-04-03T02:21:17.082Z,5.94
2019-04-03T02:31:22.244Z,5.64
2019-04-03T02:41:27.753Z,5.59
2019-04-03T02:51:33.266Z,5.61
2019-04-03T03:01:39.838Z,5.62
2019-04-03T03:11:46.154Z,5.46
2019-04-03T03:21:53.761Z,5.22
2019-04-03T03:32:11.641Z,5.07
2019-04-03T03:42:06.846Z,5.24
2019-04-03T03:52:14.400Z,5.22
2019-04-03T04:02:20.493Z,5.05
2019-04-03T04:12:25.847Z,4.89
2019-04-03T04:22:31.571Z,4.67
2019-04-03T04:32:36.915Z,4.60
2019-04-03T04:42:42.165Z,4.66
2019-04-03T04:52:47.300Z,4.65
2019-04-03T05:02:52.598Z,5.18
2019-04-03T05:12:58.331Z,6.08
2019-04-03T05:23:03.840Z,6.93
2019-04-03T05:33:11.233Z,7.21
2019-04-03T05:43:17.212Z,7.39
2019-04-03T05:53:22.405Z,7.38
2019-04-03T06:03:39.231Z,8.21
2019-04-03T06:13:34.732Z,9.40
2019-04-03T06:23:40.126Z,9.40
2019-04-03T06:33:45.450Z,11.72
2019-04-03T06:43:53.989Z,11.69
2019-04-03T06:53:59.621Z,12.11
2019-04-03T07:04:06.448Z,13.73
2019-04-03T07:14:12.214Z,14.23
2019-04-03T07:24:17.652Z,14.96
2019-04-03T07:34:23.171Z,14.43
2019-04-03T07:44:29.828Z,13.34
2019-04-03T07:54:35.050Z,15.98
2019-04-03T08:04:40.340Z,17.04
2019-04-03T08:14:45.520Z,17.14
2019-04-03T08:24:53.098Z,15.28
2019-04-03T08:34:57.953Z,18.80
2019-04-03T08:45:05.768Z,15.73
2019-04-03T08:55:12.864Z,16.61
2019-04-03T09:05:19.358Z,17.11
2019-04-03T09:15:25.846Z,16.70
2019-04-03T09:25:33.029Z,18.24
2019-04-03T09:35:38.750Z,17.22
2019-04-03T09:45:44.747Z,18.89
2019-04-03T09:55:49.979Z,18.65
2019-04-03T10:05:55.380Z,18.46
2019-04-03T10:16:03.220Z,20.02
2019-04-03T10:26:08.773Z,18.39
2019-04-03T10:36:17.272Z,18.56
2019-04-03T10:46:21.289Z,18.60
2019-04-03T10:56:26.733Z,18.55
2019-04-03T11:06:32.366Z,20.41
2019-04-03T11:16:39.399Z,20.21
2019-04-03T11:26:45.203Z,20.18
2019-04-03T11:36:50.753Z,19.45
2019-04-03T11:46:56.325Z,18.28
2019-04-03T11:57:02.731Z,19.20
2019-04-03T12:07:07.799Z,18.69
2019-04-03T12:17:12.946Z,18.38
2019-04-03T12:27:18.400Z,19.88
2019-04-03T12:37:25.059Z,19.44
2019-04-03T12:47:30.675Z,19.31
2019-04-03T12:57:38.939Z,18.85
2019-04-03T13:07:45.737Z,18.73
2019-04-03T13:17:50.229Z,17.96
2019-04-03T13:27:55.438Z,17.44
2019-04-03T13:38:00.854Z,17.53
2019-04-03T13:48:06.539Z,17.92
2019-04-03T13:58:12.376Z,18.24
2019-04-03T14:08:17.924Z,18.19
2019-04-03T14:18:23.832Z,17.43
2019-04-03T14:28:29.515Z,17.43
2019-04-03T14:38:35.441Z,17.92
2019-04-03T14:48:41.632Z,17.68
2019-04-03T14:58:47.267Z,17.35
2019-04-03T15:08:54.688Z,17.27
2019-04-03T15:19:02.089Z,16.94
2019-04-03T15:29:07.795Z,17.06
2019-04-03T15:39:16.499Z,16.54
2019-04-03T15:49:21.882Z,16.54
2019-04-03T15:59:29.681Z,16.43
2019-04-03T16:09:34.798Z,16.24
2019-04-03T16:19:40.861Z,16.08
2019-04-03T16:29:48.145Z,15.89
2019-04-03T16:39:53.752Z,15.81
2019-04-03T16:50:00.341Z,15.51
2019-04-03T17:00:10.158Z,15.40
2019-04-03T17:10:16.110Z,15.26
2019-04-03T17:20:22.969Z,15.18
2019-04-03T17:30:29.633Z,15.00
2019-04-03T17:40:36.570Z,14.91
2019-04-03T17:50:42.768Z,14.78
2019-04-03T18:00:51.673Z,14.45
2019-04-03T18:10:55.990Z,14.33
2019-04-03T18:21:03.489Z,14.18
2019-04-03T18:31:09.443Z,14.22
2019-04-03T18:41:16.983Z,14.01
2019-04-03T18:51:22.848Z,14.07
2019-04-03T19:01:28.788Z,13.95
2019-04-03T19:11:35.704Z,13.71
2019-04-03T19:21:41.672Z,13.42
2019-04-03T19:31:47.595Z,13.28
2019-04-03T19:41:53.377Z,13.01
2019-04-03T19:51:58.960Z,12.88
2019-04-03T20:02:04.691Z,12.74
2019-04-03T20:12:10.502Z,12.58
2019-04-03T20:22:16.219Z,12.41
2019-04-03T20:32:22.047Z,12.18
2019-04-03T20:42:27.928Z,11.89
2019-04-03T20:52:33.633Z,11.67
2019-04-03T21:02:41.203Z,11.48
2019-04-03T21:12:46.277Z,11.19
2019-04-03T21:22:51.648Z,11.04
2019-04-03T21:32:58.011Z,10.83
2019-04-03T21:43:03.818Z,10.51
2019-04-03T21:53:09.130Z,10.42
2019-04-03T22:03:14.427Z,10.21
2019-04-03T22:13:19.929Z,10.15
2019-04-03T22:23:25.151Z,9.96
2019-04-03T22:33:31.374Z,9.71
2019-04-03T22:43:36.588Z,9.73
2019-04-03T22:53:42.234Z,9.76
2019-04-03T23:03:49.261Z,9.69
2019-04-03T23:13:54.747Z,9.51
2019-04-03T23:24:00.006Z,9.40
2019-04-03T23:34:05.324Z,9.36
2019-04-03T23:44:11.662Z,9.14
2019-04-03T23:54:18.031Z,9.04
